sensor_id;sensor_type;location;lat;lon;timestamp;temperature;humidity
13164;DHT22;6647;53.688;10.746;2022-12-16T00:00:41;-0.70;1.00
13164;DHT22;6647;53.688;10.746;2022-12-16T00:02:02;-0.70;1.00
13164;DHT22;6647;53.688;10.746;2022-12-16T00:03:24;-0.80;1.00
13164;DHT22;6647;53.688;10.746;2022-12-16T00:04:45;-0.80;1.00
13164;DHT22;6647;53.688;10.746;2022-12-16T00:06:07;-0.80;1.00
13164;DHT22;6647;53.688;10.746;2022-12-16T00:07:28;-0.80;1.00
13164;DHT22;6647;53.688;10.746;2022-12-16T00:08:49;-0.80;1.00
13164;DHT22;6647;53.688;10.746;2022-12-16T00:10:10;-0.80;1.00
13164;DHT22;6647;53.688;10.746;2022-12-16T00:11:31;-0.80;1.00
13164;DHT22;6647;53.688;10.746;2022-12-16T00:12:52;-0.80;1.00
13164;DHT22;6647;53.688;10.746;2022-12-16T00:14:13;-0.80;1.00
13164;DHT22;6647;53.688;10.746;2022-12-16T00:15:36;-0.80;1.00
13164;DHT22;6647;53.688;10.746;2022-12-16T00:16:57;-0.80;1.00
13164;DHT22;6647;53.688;10.746;2022-12-16T00:18:18;-0.80;1.00
13164;DHT22;6647;53.688;10.746;2022-12-16T00:19:39;-0.80;1.00
13164;DHT22;6647;53.688;10.746;2022-12-16T00:21:00;-0.70;1.00
13164;DHT22;6647;53.688;10.746;2022-12-16T00:22:22;-0.80;1.00
13164;DHT22;6647;53.688;10.746;2022-12-16T00:23:43;-0.80;1.00
13164;DHT22;6647;53.688;10.746;2022-12-16T00:25:04;-0.70;1.00
13164;DHT22;6647;53.688;10.746;2022-12-16T00:26:25;-0.80;1.00
13164;DHT22;6647;53.688;10.746;2022-12-16T00:27:46;-0.80;1.00
13164;DHT22;6647;53.688;10.746;2022-12-16T00:29:07;-0.70;1.00
13164;DHT22;6647;53.688;10.746;2022-12-16T00:30:30;-0.80;1.00
13164;DHT22;6647;53.688;10.746;2022-12-16T00:31:51;-0.80;1.00
13164;DHT22;6647;53.688;10.746;2022-12-16T00:33:12;-0.80;1.00
13164;DHT22;6647;53.688;10.746;2022-12-16T00:34:33;-0.80;1.00
13164;DHT22;6647;53.688;10.746;2022-12-16T00:35:54;-0.70;1.00
13164;DHT22;6647;53.688;10.746;2022-12-16T00:37:15;-0.70;1.00
13164;DHT22;6647;53.688;10.746;2022-12-16T00:38:36;-0.70;1.00
13164;DHT22;6647;53.688;10.746;2022-12-16T00:39:57;-0.70;1.00
13164;DHT22;6647;53.688;10.746;2022-12-16T00:41:18;-0.70;1.00
13164;DHT22;6647;53.688;10.746;2022-12-16T00:42:39;-0.70;1.00
13164;DHT22;6647;53.688;10.746;2022-12-16T00:44:00;-0.70;1.00
13164;DHT22;6647;53.688;10.746;2022-12-16T00:45:21;-0.70;1.00
13164;DHT22;6647;53.688;10.746;2022-12-16T00:46:42;-0.70;1.00
13164;DHT22;6647;53.688;10.746;2022-12-16T00:48:04;-0.70;1.00
13164;DHT22;6647;53.688;10.746;2022-12-16T00:49:25;-0.70;1.00
13164;DHT22;6647;53.688;10.746;2022-12-16T00:50:49;-0.70;1.00
13164;DHT22;6647;53.688;10.746;2022-12-16T00:52:10;-0.70;1.00
13164;DHT22;6647;53.688;10.746;2022-12-16T00:53:31;-0.70;1.00
13164;DHT22;6647;53.688;10.746;2022-12-16T00:54:52;-0.70;1.00
13164;DHT22;6647;53.688;10.746;2022-12-16T00:56:13;-0.70;1.00
13164;DHT22;6647;53.688;10.746;2022-12-16T00:57:34;-0.70;1.00
13164;DHT22;6647;53.688;10.746;2022-12-16T00:58:55;-0.70;1.00
13164;DHT22;6647;53.688;10.746;2022-12-16T01:00:16;-0.70;1.00
13164;DHT22;6647;53.688;10.746;2022-12-16T01:01:42;-0.70;1.00
13164;DHT22;6647;53.688;10.746;2022-12-16T01:03:02;-0.70;1.00
13164;DHT22;6647;53.688;10.746;2022-12-16T01:04:23;-0.70;1.00
13164;DHT22;6647;53.688;10.746;2022-12-16T01:05:46;-0.70;1.00
13164;DHT22;6647;53.688;10.746;2022-12-16T01:07:07;-0.70;1.00
13164;DHT22;6647;53.688;10.746;2022-12-16T01:08:29;-0.70;1.00
13164;DHT22;6647;53.688;10.746;2022-12-16T01:09:50;-0.80;1.00
13164;DHT22;6647;53.688;10.746;2022-12-16T01:11:10;-0.80;1.00
13164;DHT22;6647;53.688;10.746;2022-12-16T01:12:32;-0.80;1.00
13164;DHT22;6647;53.688;10.746;2022-12-16T01:13:53;-0.80;1.00
13164;DHT22;6647;53.688;10.746;2022-12-16T01:15:14;-0.80;1.00
13164;DHT22;6647;53.688;10.746;2022-12-16T01:16:35;-0.80;1.00
13164;DHT22;6647;53.688;10.746;2022-12-16T01:17:56;-0.80;1.00
13164;DHT22;6647;53.688;10.746;2022-12-16T01:19:17;-0.80;1.00
13164;DHT22;6647;53.688;10.746;2022-12-16T01:20:38;-0.80;1.00
13164;DHT22;6647;53.688;10.746;2022-12-16T01:21:59;-0.80;1.00
13164;DHT22;6647;53.688;10.746;2022-12-16T01:23:20;-0.80;1.00
13164;DHT22;6647;53.688;10.746;2022-12-16T01:24:43;-0.80;1.00
13164;DHT22;6647;53.688;10.746;2022-12-16T01:26:05;-0.80;1.00
13164;DHT22;6647;53.688;10.746;2022-12-16T01:27:27;-0.80;1.00
13164;DHT22;6647;53.688;10.746;2022-12-16T01:28:48;-0.80;1.00
13164;DHT22;6647;53.688;10.746;2022-12-16T01:30:09;-0.80;1.00
13164;DHT22;6647;53.688;10.746;2022-12-16T01:31:31;-0.80;1.00
13164;DHT22;6647;53.688;10.746;2022-12-16T01:32:52;-0.80;1.00
13164;DHT22;6647;53.688;10.746;2022-12-16T01:34:12;-0.80;1.00
13164;DHT22;6647;53.688;10.746;2022-12-16T01:35:33;-0.80;1.00
13164;DHT22;6647;53.688;10.746;2022-12-16T01:36:54;-0.80;1.00
13164;DHT22;6647;53.688;10.746;2022-12-16T01:38:15;-0.80;1.00
13164;DHT22;6647;53.688;10.746;2022-12-16T01:39:36;-0.80;1.00
13164;DHT22;6647;53.688;10.746;2022-12-16T01:40:57;-0.80;1.00
13164;DHT22;6647;53.688;10.746;2022-12-16T01:42:20;-0.80;1.00
13164;DHT22;6647;53.688;10.746;2022-12-16T01:43:43;-0.80;1.00
13164;DHT22;6647;53.688;10.746;2022-12-16T01:47:04;-0.80;1.00
13164;DHT22;6647;53.688;10.746;2022-12-16T01:50:11;-0.80;1.00
13164;DHT22;6647;53.688;10.746;2022-12-16T01:51:37;-0.80;1.00
13164;DHT22;6647;53.688;10.746;2022-12-16T01:53:02;-0.80;1.00
13164;DHT22;6647;53.688;10.746;2022-12-16T01:54:34;-0.80;1.00
13164;DHT22;6647;53.688;10.746;2022-12-16T01:55:58;-0.80;1.00
13164;DHT22;6647;53.688;10.746;2022-12-16T01:57:26;-0.80;1.00
13164;DHT22;6647;53.688;10.746;2022-12-16T01:58:50;-0.80;1.00
13164;DHT22;6647;53.688;10.746;2022-12-16T02:00:12;-0.80;1.00
13164;DHT22;6647;53.688;10.746;2022-12-16T02:01:33;-0.80;1.00
13164;DHT22;6647;53.688;10.746;2022-12-16T02:02:54;-0.80;1.00
13164;DHT22;6647;53.688;10.746;2022-12-16T02:04:16;-0.80;1.00
13164;DHT22;6647;53.688;10.746;2022-12-16T02:05:40;-0.80;1.00
13164;DHT22;6647;53.688;10.746;2022-12-16T02:07:02;-0.80;1.00
13164;DHT22;6647;53.688;10.746;2022-12-16T02:08:23;-0.80;1.00
13164;DHT22;6647;53.688;10.746;2022-12-16T02:09:44;-0.80;1.00
13164;DHT22;6647;53.688;10.746;2022-12-16T02:11:25;-0.80;1.00
13164;DHT22;6647;53.688;10.746;2022-12-16T02:14:59;-0.80;1.00
13164;DHT22;6647;53.688;10.746;2022-12-16T02:29:44;-0.80;1.00
13164;DHT22;6647;53.688;10.746;2022-12-16T02:31:19;-0.80;1.00
13164;DHT22;6647;53.688;10.746;2022-12-16T02:32:57;-0.80;1.00
13164;DHT22;6647;53.688;10.746;2022-12-16T02:35:17;-0.80;1.00
13164;DHT22;6647;53.688;10.746;2022-12-16T02:36:29;-0.80;1.00
13164;DHT22;6647;53.688;10.746;2022-12-16T02:39:42;-0.80;1.00
13164;DHT22;6647;53.688;10.746;2022-12-16T02:41:14;-0.80;1.00
13164;DHT22;6647;53.688;10.746;2022-12-16T02:42:43;-0.70;1.00
13164;DHT22;6647;53.688;10.746;2022-12-16T02:44:07;-0.70;1.00
13164;DHT22;6647;53.688;10.746;2022-12-16T02:45:30;-0.70;1.00
13164;DHT22;6647;53.688;10.746;2022-12-16T02:46:54;-0.70;1.00
13164;DHT22;6647;53.688;10.746;2022-12-16T02:48:15;-0.70;1.00
13164;DHT22;6647;53.688;10.746;2022-12-16T02:49:48;-0.80;1.00
13164;DHT22;6647;53.688;10.746;2022-12-16T02:51:10;-0.80;1.00
13164;DHT22;6647;53.688;10.746;2022-12-16T02:52:32;-0.80;1.00
13164;DHT22;6647;53.688;10.746;2022-12-16T02:53:54;-0.70;1.00
13164;DHT22;6647;53.688;10.746;2022-12-16T02:55:15;-0.70;1.00
13164;DHT22;6647;53.688;10.746;2022-12-16T02:58:49;-0.80;1.00
13164;DHT22;6647;53.688;10.746;2022-12-16T03:00:15;-0.80;1.00
13164;DHT22;6647;53.688;10.746;2022-12-16T03:01:56;-0.80;1.00
13164;DHT22;6647;53.688;10.746;2022-12-16T03:03:26;-0.80;1.00
13164;DHT22;6647;53.688;10.746;2022-12-16T03:06:31;-0.80;1.00
13164;DHT22;6647;53.688;10.746;2022-12-16T03:07:55;-0.80;1.00
13164;DHT22;6647;53.688;10.746;2022-12-16T03:09:22;-0.80;1.00
13164;DHT22;6647;53.688;10.746;2022-12-16T03:10:47;-0.80;1.00
13164;DHT22;6647;53.688;10.746;2022-12-16T03:12:12;-0.90;1.00
13164;DHT22;6647;53.688;10.746;2022-12-16T03:13:45;-0.90;1.00
13164;DHT22;6647;53.688;10.746;2022-12-16T03:15:08;-0.90;1.00
13164;DHT22;6647;53.688;10.746;2022-12-16T03:16:31;-0.90;1.00
13164;DHT22;6647;53.688;10.746;2022-12-16T03:17:54;-0.90;1.00
13164;DHT22;6647;53.688;10.746;2022-12-16T03:19:17;-0.90;1.00
13164;DHT22;6647;53.688;10.746;2022-12-16T03:21:02;-0.90;1.00
13164;DHT22;6647;53.688;10.746;2022-12-16T03:22:27;-0.90;1.00
13164;DHT22;6647;53.688;10.746;2022-12-16T03:23:56;-0.90;1.00
13164;DHT22;6647;53.688;10.746;2022-12-16T03:25:19;-0.90;1.00
13164;DHT22;6647;53.688;10.746;2022-12-16T03:27:00;-0.90;1.00
13164;DHT22;6647;53.688;10.746;2022-12-16T03:31:37;-1.00;1.00
13164;DHT22;6647;53.688;10.746;2022-12-16T03:33:15;-1.00;1.00
13164;DHT22;6647;53.688;10.746;2022-12-16T03:34:59;-1.00;1.00
13164;DHT22;6647;53.688;10.746;2022-12-16T03:36:21;-1.00;1.00
13164;DHT22;6647;53.688;10.746;2022-12-16T03:37:46;-1.00;1.00
13164;DHT22;6647;53.688;10.746;2022-12-16T03:39:09;-1.00;1.00
13164;DHT22;6647;53.688;10.746;2022-12-16T03:40:32;-1.00;1.00
13164;DHT22;6647;53.688;10.746;2022-12-16T03:41:55;-1.00;1.00
13164;DHT22;6647;53.688;10.746;2022-12-16T03:43:16;-1.00;1.00
13164;DHT22;6647;53.688;10.746;2022-12-16T03:44:37;-1.00;1.00
13164;DHT22;6647;53.688;10.746;2022-12-16T03:46:03;-1.00;1.00
13164;DHT22;6647;53.688;10.746;2022-12-16T03:47:26;-1.00;1.00
13164;DHT22;6647;53.688;10.746;2022-12-16T03:48:49;-1.00;1.00
13164;DHT22;6647;53.688;10.746;2022-12-16T03:50:10;-1.00;1.00
13164;DHT22;6647;53.688;10.746;2022-12-16T03:51:31;-1.00;1.00
13164;DHT22;6647;53.688;10.746;2022-12-16T03:52:52;-1.10;1.00
13164;DHT22;6647;53.688;10.746;2022-12-16T03:54:13;-1.10;1.00
13164;DHT22;6647;53.688;10.746;2022-12-16T03:55:34;-1.10;1.00
13164;DHT22;6647;53.688;10.746;2022-12-16T03:56:56;-1.10;1.00
13164;DHT22;6647;53.688;10.746;2022-12-16T03:58:17;-1.10;1.00
13164;DHT22;6647;53.688;10.746;2022-12-16T03:59:38;-1.20;1.00
13164;DHT22;6647;53.688;10.746;2022-12-16T04:00:59;-1.20;1.00
13164;DHT22;6647;53.688;10.746;2022-12-16T04:02:20;-1.20;1.00
13164;DHT22;6647;53.688;10.746;2022-12-16T04:03:41;-1.20;1.00
13164;DHT22;6647;53.688;10.746;2022-12-16T04:05:02;-1.20;1.00
13164;DHT22;6647;53.688;10.746;2022-12-16T04:06:23;-1.20;1.00
13164;DHT22;6647;53.688;10.746;2022-12-16T04:07:44;-1.30;1.00
13164;DHT22;6647;53.688;10.746;2022-12-16T04:09:04;-1.30;1.00
13164;DHT22;6647;53.688;10.746;2022-12-16T04:10:25;-1.30;1.00
13164;DHT22;6647;53.688;10.746;2022-12-16T04:12:06;-1.40;1.00
13164;DHT22;6647;53.688;10.746;2022-12-16T04:13:46;-1.40;1.00
13164;DHT22;6647;53.688;10.746;2022-12-16T04:15:26;-1.40;1.00
13164;DHT22;6647;53.688;10.746;2022-12-16T04:17:09;-1.40;1.00
13164;DHT22;6647;53.688;10.746;2022-12-16T04:18:50;-1.40;1.00
13164;DHT22;6647;53.688;10.746;2022-12-16T04:20:36;-1.40;1.00
13164;DHT22;6647;53.688;10.746;2022-12-16T04:22:27;-1.40;1.00
13164;DHT22;6647;53.688;10.746;2022-12-16T04:24:11;-1.50;1.00
13164;DHT22;6647;53.688;10.746;2022-12-16T04:25:39;-1.50;1.00
13164;DHT22;6647;53.688;10.746;2022-12-16T04:27:00;-1.40;1.00
13164;DHT22;6647;53.688;10.746;2022-12-16T04:28:39;-1.50;1.00
13164;DHT22;6647;53.688;10.746;2022-12-16T04:30:00;-1.50;1.00
13164;DHT22;6647;53.688;10.746;2022-12-16T04:31:39;-1.50;1.00
13164;DHT22;6647;53.688;10.746;2022-12-16T04:33:08;-1.60;1.00
13164;DHT22;6647;53.688;10.746;2022-12-16T04:34:48;-1.60;1.00
13164;DHT22;6647;53.688;10.746;2022-12-16T04:36:09;-1.60;1.00
13164;DHT22;6647;53.688;10.746;2022-12-16T04:37:49;-1.60;1.00
13164;DHT22;6647;53.688;10.746;2022-12-16T04:39:28;-1.60;1.00
13164;DHT22;6647;53.688;10.746;2022-12-16T04:41:08;-1.60;1.00
13164;DHT22;6647;53.688;10.746;2022-12-16T04:42:47;-1.70;1.00
13164;DHT22;6647;53.688;10.746;2022-12-16T04:44:26;-1.70;1.00
13164;DHT22;6647;53.688;10.746;2022-12-16T04:46:06;-1.70;1.00
13164;DHT22;6647;53.688;10.746;2022-12-16T04:47:45;-1.70;1.00
13164;DHT22;6647;53.688;10.746;2022-12-16T04:49:25;-1.70;1.00
13164;DHT22;6647;53.688;10.746;2022-12-16T04:51:05;-1.70;1.00
13164;DHT22;6647;53.688;10.746;2022-12-16T04:52:44;-1.80;1.00
13164;DHT22;6647;53.688;10.746;2022-12-16T04:54:24;-1.70;1.00
13164;DHT22;6647;53.688;10.746;2022-12-16T04:56:03;-1.80;1.00
13164;DHT22;6647;53.688;10.746;2022-12-16T04:57:47;-1.80;1.00
13164;DHT22;6647;53.688;10.746;2022-12-16T04:59:27;-1.80;1.00
13164;DHT22;6647;53.688;10.746;2022-12-16T05:01:14;-1.80;1.00
13164;DHT22;6647;53.688;10.746;2022-12-16T05:02:53;-1.90;1.00
13164;DHT22;6647;53.688;10.746;2022-12-16T05:04:33;-1.90;1.00
13164;DHT22;6647;53.688;10.746;2022-12-16T05:06:13;-1.90;1.00
13164;DHT22;6647;53.688;10.746;2022-12-16T05:07:53;-1.90;1.00
13164;DHT22;6647;53.688;10.746;2022-12-16T05:09:32;-2.00;1.00
13164;DHT22;6647;53.688;10.746;2022-12-16T05:11:12;-2.00;1.00
13164;DHT22;6647;53.688;10.746;2022-12-16T05:12:53;-2.00;1.00
13164;DHT22;6647;53.688;10.746;2022-12-16T05:14:33;-2.00;1.00
13164;DHT22;6647;53.688;10.746;2022-12-16T05:16:12;-2.00;1.00
13164;DHT22;6647;53.688;10.746;2022-12-16T05:17:51;-2.10;1.00
13164;DHT22;6647;53.688;10.746;2022-12-16T05:19:31;-2.00;1.00
13164;DHT22;6647;53.688;10.746;2022-12-16T05:21:10;-2.10;1.00
13164;DHT22;6647;53.688;10.746;2022-12-16T05:22:50;-2.00;1.00
13164;DHT22;6647;53.688;10.746;2022-12-16T05:24:30;-2.10;1.00
13164;DHT22;6647;53.688;10.746;2022-12-16T05:26:09;-2.10;1.00
13164;DHT22;6647;53.688;10.746;2022-12-16T05:27:50;-2.10;1.00
13164;DHT22;6647;53.688;10.746;2022-12-16T05:29:30;-2.10;1.00
13164;DHT22;6647;53.688;10.746;2022-12-16T05:31:20;-2.10;1.00
13164;DHT22;6647;53.688;10.746;2022-12-16T05:32:59;-2.10;1.00
13164;DHT22;6647;53.688;10.746;2022-12-16T05:34:40;-2.10;1.00
13164;DHT22;6647;53.688;10.746;2022-12-16T05:36:19;-2.10;1.00
13164;DHT22;6647;53.688;10.746;2022-12-16T05:37:59;-2.10;1.00
13164;DHT22;6647;53.688;10.746;2022-12-16T05:39:38;-2.10;1.00
13164;DHT22;6647;53.688;10.746;2022-12-16T05:41:18;-2.10;1.00
13164;DHT22;6647;53.688;10.746;2022-12-16T05:42:57;-2.10;1.00
13164;DHT22;6647;53.688;10.746;2022-12-16T05:44:37;-2.00;1.00
13164;DHT22;6647;53.688;10.746;2022-12-16T05:46:16;-2.00;1.00
13164;DHT22;6647;53.688;10.746;2022-12-16T05:47:55;-2.00;1.00
13164;DHT22;6647;53.688;10.746;2022-12-16T05:49:35;-2.00;1.00
13164;DHT22;6647;53.688;10.746;2022-12-16T05:51:14;-2.00;1.00
13164;DHT22;6647;53.688;10.746;2022-12-16T05:52:55;-2.00;1.00
13164;DHT22;6647;53.688;10.746;2022-12-16T05:54:35;-2.00;1.00
13164;DHT22;6647;53.688;10.746;2022-12-16T05:56:31;-2.00;1.00
13164;DHT22;6647;53.688;10.746;2022-12-16T05:58:10;-2.00;1.00
13164;DHT22;6647;53.688;10.746;2022-12-16T05:59:50;-2.00;1.00
13164;DHT22;6647;53.688;10.746;2022-12-16T06:01:29;-2.00;1.00
13164;DHT22;6647;53.688;10.746;2022-12-16T06:03:09;-2.00;1.00
13164;DHT22;6647;53.688;10.746;2022-12-16T06:04:49;-2.00;1.00
13164;DHT22;6647;53.688;10.746;2022-12-16T06:06:29;-2.00;1.00
13164;DHT22;6647;53.688;10.746;2022-12-16T06:08:08;-2.00;1.00
13164;DHT22;6647;53.688;10.746;2022-12-16T06:09:48;-2.00;1.00
13164;DHT22;6647;53.688;10.746;2022-12-16T06:11:27;-2.00;1.00
13164;DHT22;6647;53.688;10.746;2022-12-16T06:13:07;-2.00;1.00
13164;DHT22;6647;53.688;10.746;2022-12-16T06:14:46;-2.00;1.00
13164;DHT22;6647;53.688;10.746;2022-12-16T06:16:26;-2.00;1.00
13164;DHT22;6647;53.688;10.746;2022-12-16T06:18:05;-2.00;1.00
13164;DHT22;6647;53.688;10.746;2022-12-16T06:19:45;-2.00;1.00
13164;DHT22;6647;53.688;10.746;2022-12-16T06:21:24;-2.00;1.00
13164;DHT22;6647;53.688;10.746;2022-12-16T06:23:04;-2.00;1.00
13164;DHT22;6647;53.688;10.746;2022-12-16T06:24:43;-2.00;1.00
13164;DHT22;6647;53.688;10.746;2022-12-16T06:26:23;-2.00;1.00
13164;DHT22;6647;53.688;10.746;2022-12-16T06:28:02;-2.00;1.00
13164;DHT22;6647;53.688;10.746;2022-12-16T06:29:42;-2.00;1.00
13164;DHT22;6647;53.688;10.746;2022-12-16T06:31:21;-2.00;1.00
13164;DHT22;6647;53.688;10.746;2022-12-16T06:33:01;-2.00;1.00
13164;DHT22;6647;53.688;10.746;2022-12-16T06:34:40;-2.10;1.00
13164;DHT22;6647;53.688;10.746;2022-12-16T06:36:20;-2.10;1.00
13164;DHT22;6647;53.688;10.746;2022-12-16T06:37:59;-2.10;1.00
13164;DHT22;6647;53.688;10.746;2022-12-16T06:39:40;-2.10;1.00
13164;DHT22;6647;53.688;10.746;2022-12-16T06:41:19;-2.10;1.00
13164;DHT22;6647;53.688;10.746;2022-12-16T06:42:59;-2.00;1.00
13164;DHT22;6647;53.688;10.746;2022-12-16T06:44:38;-2.00;1.00
13164;DHT22;6647;53.688;10.746;2022-12-16T06:46:17;-2.00;1.00
13164;DHT22;6647;53.688;10.746;2022-12-16T06:47:57;-2.00;1.00
13164;DHT22;6647;53.688;10.746;2022-12-16T06:49:37;-2.00;1.00
13164;DHT22;6647;53.688;10.746;2022-12-16T06:51:16;-2.00;1.00
13164;DHT22;6647;53.688;10.746;2022-12-16T06:52:55;-2.00;1.00
13164;DHT22;6647;53.688;10.746;2022-12-16T06:54:35;-2.00;1.00
13164;DHT22;6647;53.688;10.746;2022-12-16T06:56:14;-2.00;1.00
13164;DHT22;6647;53.688;10.746;2022-12-16T06:57:57;-2.00;1.00
13164;DHT22;6647;53.688;10.746;2022-12-16T06:59:37;-2.00;1.00
13164;DHT22;6647;53.688;10.746;2022-12-16T07:01:16;-2.00;1.00
13164;DHT22;6647;53.688;10.746;2022-12-16T07:02:55;-2.00;1.00
13164;DHT22;6647;53.688;10.746;2022-12-16T07:04:35;-2.00;1.00
13164;DHT22;6647;53.688;10.746;2022-12-16T07:06:14;-2.00;1.00
13164;DHT22;6647;53.688;10.746;2022-12-16T07:07:53;-2.00;1.00
13164;DHT22;6647;53.688;10.746;2022-12-16T07:09:33;-2.00;1.00
13164;DHT22;6647;53.688;10.746;2022-12-16T07:11:12;-2.00;1.00
13164;DHT22;6647;53.688;10.746;2022-12-16T07:12:55;-2.00;1.00
13164;DHT22;6647;53.688;10.746;2022-12-16T07:14:35;-2.00;1.00
13164;DHT22;6647;53.688;10.746;2022-12-16T07:16:14;-2.00;1.00
13164;DHT22;6647;53.688;10.746;2022-12-16T07:17:53;-2.00;1.00
13164;DHT22;6647;53.688;10.746;2022-12-16T07:19:33;-1.90;1.00
13164;DHT22;6647;53.688;10.746;2022-12-16T07:21:12;-1.90;1.00
13164;DHT22;6647;53.688;10.746;2022-12-16T07:22:52;-1.90;1.00
13164;DHT22;6647;53.688;10.746;2022-12-16T07:24:32;-1.90;1.00
13164;DHT22;6647;53.688;10.746;2022-12-16T07:26:11;-1.90;1.00
13164;DHT22;6647;53.688;10.746;2022-12-16T07:27:51;-1.90;1.00
13164;DHT22;6647;53.688;10.746;2022-12-16T07:29:30;-1.90;1.00
13164;DHT22;6647;53.688;10.746;2022-12-16T07:31:09;-1.90;1.00
13164;DHT22;6647;53.688;10.746;2022-12-16T07:32:49;-1.90;1.00
13164;DHT22;6647;53.688;10.746;2022-12-16T07:34:29;-1.90;1.00
13164;DHT22;6647;53.688;10.746;2022-12-16T07:36:19;-1.90;1.00
13164;DHT22;6647;53.688;10.746;2022-12-16T07:37:58;-1.90;1.00
13164;DHT22;6647;53.688;10.746;2022-12-16T07:39:38;-1.90;1.00
13164;DHT22;6647;53.688;10.746;2022-12-16T07:41:17;-1.80;1.00
13164;DHT22;6647;53.688;10.746;2022-12-16T07:42:57;-1.80;1.00
13164;DHT22;6647;53.688;10.746;2022-12-16T07:44:36;-1.80;1.00
13164;DHT22;6647;53.688;10.746;2022-12-16T07:46:16;-1.80;1.00
13164;DHT22;6647;53.688;10.746;2022-12-16T07:47:55;-1.80;1.00
13164;DHT22;6647;53.688;10.746;2022-12-16T07:49:35;-1.80;1.00
13164;DHT22;6647;53.688;10.746;2022-12-16T07:51:14;-1.80;1.00
13164;DHT22;6647;53.688;10.746;2022-12-16T07:52:57;-1.70;1.00
13164;DHT22;6647;53.688;10.746;2022-12-16T07:54:37;-1.70;1.00
13164;DHT22;6647;53.688;10.746;2022-12-16T07:56:16;-1.70;1.00
13164;DHT22;6647;53.688;10.746;2022-12-16T07:57:56;-1.70;1.00
13164;DHT22;6647;53.688;10.746;2022-12-16T07:59:38;-1.70;1.00
13164;DHT22;6647;53.688;10.746;2022-12-16T08:01:18;-1.70;1.00
13164;DHT22;6647;53.688;10.746;2022-12-16T08:02:57;-1.70;1.00
13164;DHT22;6647;53.688;10.746;2022-12-16T08:04:37;-1.70;1.00
13164;DHT22;6647;53.688;10.746;2022-12-16T08:06:17;-1.70;1.00
13164;DHT22;6647;53.688;10.746;2022-12-16T08:07:58;-1.70;1.00
13164;DHT22;6647;53.688;10.746;2022-12-16T08:09:37;-1.70;1.00
13164;DHT22;6647;53.688;10.746;2022-12-16T08:11:17;-1.70;1.00
13164;DHT22;6647;53.688;10.746;2022-12-16T08:13:01;-1.70;1.00
13164;DHT22;6647;53.688;10.746;2022-12-16T08:14:41;-1.70;1.00
13164;DHT22;6647;53.688;10.746;2022-12-16T08:16:20;-1.60;1.00
13164;DHT22;6647;53.688;10.746;2022-12-16T08:17:59;-1.60;1.00
13164;DHT22;6647;53.688;10.746;2022-12-16T08:19:39;-1.60;1.00
13164;DHT22;6647;53.688;10.746;2022-12-16T08:21:18;-1.60;1.00
13164;DHT22;6647;53.688;10.746;2022-12-16T08:22:58;-1.60;1.00
13164;DHT22;6647;53.688;10.746;2022-12-16T08:24:37;-1.60;1.00
13164;DHT22;6647;53.688;10.746;2022-12-16T08:26:17;-1.60;1.00
13164;DHT22;6647;53.688;10.746;2022-12-16T08:27:56;-1.60;1.00
13164;DHT22;6647;53.688;10.746;2022-12-16T08:29:46;-1.50;1.00
13164;DHT22;6647;53.688;10.746;2022-12-16T08:31:26;-1.50;1.00
13164;DHT22;6647;53.688;10.746;2022-12-16T08:33:05;-1.50;1.00
13164;DHT22;6647;53.688;10.746;2022-12-16T08:34:44;-1.50;1.00
13164;DHT22;6647;53.688;10.746;2022-12-16T08:36:24;-1.50;1.00
13164;DHT22;6647;53.688;10.746;2022-12-16T08:38:03;-1.50;1.00
13164;DHT22;6647;53.688;10.746;2022-12-16T08:39:43;-1.40;1.00
13164;DHT22;6647;53.688;10.746;2022-12-16T08:41:22;-1.40;1.00
13164;DHT22;6647;53.688;10.746;2022-12-16T08:43:01;-1.40;1.00
13164;DHT22;6647;53.688;10.746;2022-12-16T08:44:41;-1.40;1.00
13164;DHT22;6647;53.688;10.746;2022-12-16T08:46:20;-1.40;1.00
13164;DHT22;6647;53.688;10.746;2022-12-16T08:48:01;-1.40;1.00
13164;DHT22;6647;53.688;10.746;2022-12-16T08:49:40;-1.40;1.00
13164;DHT22;6647;53.688;10.746;2022-12-16T08:51:19;-1.40;1.00
13164;DHT22;6647;53.688;10.746;2022-12-16T08:52:59;-1.40;1.00
13164;DHT22;6647;53.688;10.746;2022-12-16T08:54:38;-1.30;1.00
13164;DHT22;6647;53.688;10.746;2022-12-16T08:56:18;-1.30;1.00
13164;DHT22;6647;53.688;10.746;2022-12-16T08:57:57;-1.30;1.00
13164;DHT22;6647;53.688;10.746;2022-12-16T08:59:37;-1.30;1.00
13164;DHT22;6647;53.688;10.746;2022-12-16T09:01:16;-1.20;1.00
13164;DHT22;6647;53.688;10.746;2022-12-16T09:02:59;-1.30;1.00
13164;DHT22;6647;53.688;10.746;2022-12-16T09:04:39;-1.20;1.00
13164;DHT22;6647;53.688;10.746;2022-12-16T09:06:19;-1.20;1.00
13164;DHT22;6647;53.688;10.746;2022-12-16T09:08:00;-1.20;1.00
13164;DHT22;6647;53.688;10.746;2022-12-16T09:09:39;-1.20;1.00
13164;DHT22;6647;53.688;10.746;2022-12-16T09:11:19;-1.20;1.00
13164;DHT22;6647;53.688;10.746;2022-12-16T09:13:10;-1.20;1.00
13164;DHT22;6647;53.688;10.746;2022-12-16T09:14:50;-1.10;1.00
13164;DHT22;6647;53.688;10.746;2022-12-16T09:16:29;-1.20;1.00
13164;DHT22;6647;53.688;10.746;2022-12-16T09:18:08;-1.10;1.00
13164;DHT22;6647;53.688;10.746;2022-12-16T09:19:48;-1.10;1.00
13164;DHT22;6647;53.688;10.746;2022-12-16T09:21:41;-1.10;1.00
13164;DHT22;6647;53.688;10.746;2022-12-16T09:23:21;-1.10;1.00
13164;DHT22;6647;53.688;10.746;2022-12-16T09:25:00;-1.10;1.00
13164;DHT22;6647;53.688;10.746;2022-12-16T09:26:40;-1.00;1.00
13164;DHT22;6647;53.688;10.746;2022-12-16T09:28:19;-1.00;1.00
13164;DHT22;6647;53.688;10.746;2022-12-16T09:29:59;-1.00;1.00
13164;DHT22;6647;53.688;10.746;2022-12-16T09:31:38;-1.00;1.00
13164;DHT22;6647;53.688;10.746;2022-12-16T09:33:17;-1.00;1.00
13164;DHT22;6647;53.688;10.746;2022-12-16T09:34:57;-1.00;1.00
13164;DHT22;6647;53.688;10.746;2022-12-16T09:36:36;-1.00;1.00
13164;DHT22;6647;53.688;10.746;2022-12-16T09:38:16;-1.00;1.00
13164;DHT22;6647;53.688;10.746;2022-12-16T09:39:55;-1.00;1.00
13164;DHT22;6647;53.688;10.746;2022-12-16T09:41:41;-1.00;1.00
13164;DHT22;6647;53.688;10.746;2022-12-16T09:44:14;-1.00;1.00
13164;DHT22;6647;53.688;10.746;2022-12-16T09:46:04;-1.00;1.00
13164;DHT22;6647;53.688;10.746;2022-12-16T09:48:10;-0.90;1.00
13164;DHT22;6647;53.688;10.746;2022-12-16T09:49:52;-0.90;1.00
13164;DHT22;6647;53.688;10.746;2022-12-16T09:51:33;-0.90;1.00
13164;DHT22;6647;53.688;10.746;2022-12-16T09:53:19;-1.00;1.00
13164;DHT22;6647;53.688;10.746;2022-12-16T09:55:02;-1.00;1.00
13164;DHT22;6647;53.688;10.746;2022-12-16T09:56:43;-1.00;1.00
13164;DHT22;6647;53.688;10.746;2022-12-16T09:58:29;-0.90;1.00
13164;DHT22;6647;53.688;10.746;2022-12-16T10:00:18;-0.90;1.00
13164;DHT22;6647;53.688;10.746;2022-12-16T10:01:58;-0.90;1.00
13164;DHT22;6647;53.688;10.746;2022-12-16T10:03:38;-1.00;1.00
13164;DHT22;6647;53.688;10.746;2022-12-16T10:05:29;-0.90;1.00
13164;DHT22;6647;53.688;10.746;2022-12-16T10:07:16;-0.90;1.00
13164;DHT22;6647;53.688;10.746;2022-12-16T10:09:27;-0.90;1.00
13164;DHT22;6647;53.688;10.746;2022-12-16T10:11:13;-0.90;1.00
13164;DHT22;6647;53.688;10.746;2022-12-16T10:17:07;-0.90;1.00
13164;DHT22;6647;53.688;10.746;2022-12-16T10:18:56;-0.90;1.00
13164;DHT22;6647;53.688;10.746;2022-12-16T10:20:45;-0.80;1.00
13164;DHT22;6647;53.688;10.746;2022-12-16T10:22:32;-0.80;1.00
13164;DHT22;6647;53.688;10.746;2022-12-16T10:24:26;-0.80;1.00
13164;DHT22;6647;53.688;10.746;2022-12-16T10:26:27;-0.80;1.00
13164;DHT22;6647;53.688;10.746;2022-12-16T10:30:15;-0.80;1.00
13164;DHT22;6647;53.688;10.746;2022-12-16T10:31:54;-0.80;1.00
13164;DHT22;6647;53.688;10.746;2022-12-16T10:33:34;-0.80;1.00
13164;DHT22;6647;53.688;10.746;2022-12-16T10:35:22;-0.80;1.00